createdAt,value
2017-03-02T00:00:21.056Z,5.42
2017-03-02T00:01:30.373Z,5.49
2017-03-02T00:02:39.403Z,5.49
2017-03-02T00:03:48.326Z,5.43
2017-03-02T00:04:58.076Z,5.53
2017-03-02T00:06:08.213Z,5.48
2017-03-02T00:07:17.534Z,5.43
2017-03-02T00:08:27.314Z,5.48
2017-03-02T00:09:37.473Z,5.54
2017-03-02T00:10:47.630Z,5.43
2017-03-02T00:11:57.379Z,5.48
2017-03-02T00:13:07.116Z,5.64
2017-03-02T00:14:17.412Z,5.63
2017-03-02T00:15:27.184Z,5.63
2017-03-02T00:16:36.529Z,5.63
2017-03-02T00:17:46.271Z,5.64
2017-03-02T00:18:56.408Z,5.6
2017-03-02T00:20:05.318Z,5.6
2017-03-02T00:21:15.045Z,5.68
2017-03-02T00:22:23.985Z,5.68
2017-03-02T00:23:33.712Z,5.72
2017-03-02T00:24:43.028Z,5.75
2017-03-02T00:25:53.677Z,5.67
2017-03-02T00:27:03.036Z,5.75
2017-03-02T00:28:12.780Z,5.72
2017-03-02T00:29:22.504Z,5.74
2017-03-02T00:30:31.854Z,5.72
2017-03-02T00:31:41.342Z,5.67
2017-03-02T00:32:50.667Z,5.67
2017-03-02T00:33:59.983Z,5.76
2017-03-02T00:35:09.730Z,5.72
2017-03-02T00:36:20.306Z,5.76
2017-03-02T00:37:29.701Z,5.75
2017-03-02T00:38:39.451Z,5.67
2017-03-02T00:39:49.590Z,5.74
2017-03-02T00:40:59.329Z,5.71
2017-03-02T00:42:09.064Z,5.78
2017-03-02T00:43:18.928Z,5.82
2017-03-02T00:44:28.257Z,5.78
2017-03-02T00:45:38.835Z,5.79
2017-03-02T00:46:47.770Z,5.79
2017-03-02T00:47:57.120Z,5.83
2017-03-02T00:49:07.567Z,5.86
2017-03-02T00:50:17.325Z,5.82
2017-03-02T00:51:26.659Z,5.83
2017-03-02T00:52:36.407Z,5.82
2017-03-02T00:53:46.599Z,5.72
2017-03-02T00:54:56.732Z,5.82
2017-03-02T00:56:06.927Z,5.75
2017-03-02T00:57:16.664Z,5.76
2017-03-02T00:58:26.432Z,5.78
2017-03-02T00:59:36.184Z,5.76
2017-03-02T01:00:45.628Z,5.76
2017-03-02T01:01:55.803Z,5.72
2017-03-02T01:03:06.352Z,5.76
2017-03-02T01:04:16.097Z,5.72
2017-03-02T01:05:26.273Z,5.67
2017-03-02T01:06:35.641Z,5.75
2017-03-02T01:07:44.964Z,5.68
2017-03-02T01:08:53.894Z,5.68
2017-03-02T01:10:04.053Z,5.61
2017-03-02T01:11:13.401Z,5.72
2017-03-02T01:12:22.903Z,5.65
2017-03-02T01:13:33.067Z,5.71
2017-03-02T01:14:42.405Z,5.68
2017-03-02T01:15:52.134Z,5.68
2017-03-02T01:17:02.693Z,5.68
2017-03-02T01:18:12.085Z,5.67
2017-03-02T01:19:21.004Z,5.68
2017-03-02T01:20:30.737Z,5.65
2017-03-02T01:21:39.672Z,5.65
2017-03-02T01:22:48.593Z,5.67
2017-03-02T01:23:58.472Z,5.67
2017-03-02T01:25:07.796Z,5.74
2017-03-02T01:26:17.564Z,5.67
2017-03-02T01:27:27.709Z,5.68
2017-03-02T01:28:37.045Z,5.68
2017-03-02T01:29:46.026Z,5.61
2017-03-02T01:30:56.173Z,5.63
2017-03-02T01:32:05.499Z,5.63
2017-03-02T01:33:15.639Z,5.64
2017-03-02T01:34:25.393Z,5.63
2017-03-02T01:35:34.879Z,5.68
2017-03-02T01:36:44.608Z,5.63
2017-03-02T01:37:54.356Z,5.68
2017-03-02T01:39:04.088Z,5.68
2017-03-02T01:40:14.252Z,5.67
2017-03-02T01:41:24.165Z,5.72
2017-03-02T01:42:33.483Z,5.68
2017-03-02T01:43:43.628Z,5.67
2017-03-02T01:44:52.543Z,5.64
2017-03-02T01:46:01.867Z,5.67
2017-03-02T01:47:12.212Z,5.72
2017-03-02T01:48:21.165Z,5.61
2017-03-02T01:49:30.929Z,5.67
2017-03-02T01:50:40.705Z,5.65
2017-03-02T01:51:50.434Z,5.65
2017-03-02T01:52:59.410Z,5.63
2017-03-02T01:54:09.157Z,5.68
2017-03-02T01:55:18.483Z,5.67
2017-03-02T01:56:27.806Z,5.67
2017-03-02T01:57:37.145Z,5.65
2017-03-02T01:58:47.437Z,5.65
2017-03-02T01:59:57.195Z,5.68
2017-03-02T02:01:07.756Z,5.75
2017-03-02T02:02:17.486Z,5.68
2017-03-02T02:03:27.229Z,5.72
2017-03-02T02:04:37.378Z,5.65
2017-03-02T02:05:46.286Z,5.68
2017-03-02T02:06:55.216Z,5.78
2017-03-02T02:08:04.960Z,5.71
2017-03-02T02:09:13.873Z,5.68
2017-03-02T02:10:22.844Z,5.72
2017-03-02T02:11:32.981Z,5.67
2017-03-02T02:12:42.738Z,5.67
2017-03-02T02:13:52.065Z,5.67
2017-03-02T02:15:01.792Z,5.74
2017-03-02T02:16:11.527Z,5.67
2017-03-02T02:17:22.079Z,5.68
2017-03-02T02:18:32.215Z,5.68
2017-03-02T02:19:42.346Z,5.67
2017-03-02T02:20:52.099Z,5.76
2017-03-02T02:22:01.815Z,5.72
2017-03-02T02:23:11.147Z,5.72
2017-03-02T02:24:20.913Z,5.76
2017-03-02T02:25:30.660Z,5.72
2017-03-02T02:26:40.810Z,5.82
2017-03-02T02:27:51.001Z,5.81
2017-03-02T02:29:00.734Z,5.79
2017-03-02T02:30:10.881Z,5.75
2017-03-02T02:31:21.026Z,5.72
2017-03-02T02:32:30.753Z,5.68
2017-03-02T02:33:41.033Z,5.68
2017-03-02T02:34:51.986Z,5.67
2017-03-02T02:36:02.139Z,5.67
2017-03-02T02:37:12.741Z,5.63
2017-03-02T02:38:22.476Z,5.65
2017-03-02T02:39:31.462Z,5.67
2017-03-02T02:40:41.618Z,5.68
2017-03-02T02:41:50.968Z,5.68
2017-03-02T02:42:59.903Z,5.68
2017-03-02T02:44:10.849Z,5.75
2017-03-02T02:45:20.394Z,5.75
2017-03-02T02:46:30.542Z,5.76
2017-03-02T02:47:39.856Z,5.67
2017-03-02T02:48:49.988Z,5.68
2017-03-02T02:49:59.713Z,5.67
2017-03-02T02:51:09.212Z,5.64
2017-03-02T02:52:19.351Z,5.65
2017-03-02T02:53:29.497Z,5.67
2017-03-02T02:54:38.810Z,5.63
2017-03-02T02:55:48.548Z,5.72
2017-03-02T02:56:58.344Z,5.71
2017-03-02T02:58:07.265Z,5.65
2017-03-02T02:59:17.033Z,5.64
2017-03-02T03:00:27.172Z,5.72
2017-03-02T03:01:37.313Z,5.68
2017-03-02T03:02:46.639Z,5.72
2017-03-02T03:03:56.378Z,5.79
2017-03-02T03:05:06.555Z,5.65
2017-03-02T03:06:17.118Z,5.72
2017-03-02T03:07:26.429Z,5.68
2017-03-02T03:08:36.025Z,5.75
2017-03-02T03:09:46.167Z,5.71
2017-03-02T03:10:55.909Z,5.67
2017-03-02T03:12:05.639Z,5.72
2017-03-02T03:13:14.566Z,5.68
2017-03-02T03:14:23.981Z,5.68
2017-03-02T03:15:32.899Z,5.67
2017-03-02T03:16:42.667Z,5.74
2017-03-02T03:17:51.992Z,5.78
2017-03-02T03:19:01.733Z,5.82
2017-03-02T03:20:11.516Z,5.81
2017-03-02T03:21:20.837Z,5.85
2017-03-02T03:22:30.175Z,5.83
2017-03-02T03:23:40.302Z,5.76
2017-03-02T03:24:49.660Z,5.79
2017-03-02T03:26:00.152Z,5.74
2017-03-02T03:27:10.285Z,5.76
2017-03-02T03:28:19.198Z,5.83
2017-03-02T03:29:28.530Z,5.81
2017-03-02T03:30:37.851Z,5.71
2017-03-02T03:31:47.239Z,5.75
2017-03-02T03:32:56.179Z,5.68
2017-03-02T03:34:05.916Z,5.63
2017-03-02T03:35:15.670Z,5.61
2017-03-02T03:36:25.405Z,5.49
2017-03-02T03:37:35.700Z,5.58
2017-03-02T03:38:45.034Z,5.53
2017-03-02T03:39:54.365Z,5.49
2017-03-02T03:41:04.101Z,5.46
2017-03-02T03:42:13.866Z,5.46
2017-03-02T03:43:22.937Z,5.45
2017-03-02T03:44:32.257Z,5.51
2017-03-02T03:45:41.168Z,5.42
2017-03-02T03:46:51.306Z,5.43
2017-03-02T03:48:00.228Z,5.39
2017-03-02T03:49:10.927Z,5.36
2017-03-02T03:50:20.250Z,5.38
2017-03-02T03:51:29.990Z,5.4
2017-03-02T03:52:38.915Z,5.38
2017-03-02T03:53:48.640Z,5.42
2017-03-02T03:54:58.495Z,5.39
2017-03-02T03:56:08.241Z,5.39
2017-03-02T03:57:18.400Z,5.39
2017-03-02T03:58:28.182Z,5.42
2017-03-02T03:59:37.934Z,5.45
2017-03-02T04:00:47.973Z,5.48
2017-03-02T04:01:57.711Z,5.6
2017-03-02T04:03:07.853Z,5.53
2017-03-02T04:04:17.998Z,5.45
2017-03-02T04:05:27.333Z,5.53
2017-03-02T04:06:37.550Z,5.45
2017-03-02T04:07:46.899Z,5.54
2017-03-02T04:08:56.628Z,5.49
2017-03-02T04:10:06.768Z,5.51
2017-03-02T04:11:16.905Z,5.39
2017-03-02T04:12:25.974Z,5.46
2017-03-02T04:13:35.722Z,5.46
2017-03-02T04:14:45.107Z,5.48
2017-03-02T04:15:54.453Z,5.43
2017-03-02T04:17:04.208Z,5.36
2017-03-02T04:18:14.086Z,5.42
2017-03-02T04:19:24.243Z,5.4
2017-03-02T04:20:33.968Z,5.42
2017-03-02T04:21:43.293Z,5.43
2017-03-02T04:22:53.426Z,5.36
2017-03-02T04:24:03.297Z,5.4
2017-03-02T04:25:12.619Z,5.45
2017-03-02T04:26:22.759Z,5.43
2017-03-02T04:27:32.082Z,5.43
2017-03-02T04:28:41.423Z,5.46
2017-03-02T04:29:50.911Z,5.48
2017-03-02T04:31:00.645Z,5.48
2017-03-02T04:32:09.578Z,5.51
2017-03-02T04:33:18.899Z,5.45
2017-03-02T04:34:28.233Z,5.43
2017-03-02T04:35:37.631Z,5.46
2017-03-02T04:36:47.768Z,5.46
2017-03-02T04:37:57.111Z,5.46
2017-03-02T04:39:06.844Z,5.48
2017-03-02T04:40:15.802Z,5.46
2017-03-02T04:41:25.299Z,5.4
2017-03-02T04:42:34.616Z,5.46
2017-03-02T04:43:43.946Z,5.38
2017-03-02T04:44:53.306Z,5.46
2017-03-02T04:46:03.442Z,5.43
2017-03-02T04:47:13.322Z,5.45
2017-03-02T04:48:23.495Z,5.38
2017-03-02T04:49:33.639Z,5.35
2017-03-02T04:50:43.777Z,5.38
2017-03-02T04:51:53.105Z,5.38
2017-03-02T04:53:02.573Z,5.43
2017-03-02T04:54:12.304Z,5.42
2017-03-02T04:55:21.212Z,5.35
2017-03-02T04:56:31.760Z,5.31
2017-03-02T04:57:41.529Z,5.35
2017-03-02T04:58:52.081Z,5.4
2017-03-02T05:00:01.835Z,5.33
2017-03-02T05:01:12.019Z,5.38
2017-03-02T05:02:22.150Z,5.39
2017-03-02T05:03:31.072Z,5.4
2017-03-02T05:04:40.575Z,5.39
2017-03-02T05:05:50.305Z,5.36
2017-03-02T05:06:59.622Z,5.42
2017-03-02T05:08:09.371Z,5.31
2017-03-02T05:09:19.102Z,5.39
2017-03-02T05:10:28.951Z,5.31
2017-03-02T05:11:38.285Z,5.35
2017-03-02T05:12:47.613Z,5.3
2017-03-02T05:13:57.348Z,5.33
2017-03-02T05:15:07.091Z,5.3
2017-03-02T05:16:16.989Z,5.3
2017-03-02T05:17:26.727Z,5.22
2017-03-02T05:18:36.882Z,5.24
2017-03-02T05:19:47.043Z,5.3
2017-03-02T05:20:56.786Z,5.28
2017-03-02T05:22:06.262Z,5.25
2017-03-02T05:23:15.208Z,5.2
2017-03-02T05:24:24.539Z,5.3
2017-03-02T05:25:33.884Z,5.3
2017-03-02T05:26:43.264Z,5.22
2017-03-02T05:27:53.496Z,5.24
2017-03-02T05:29:03.682Z,5.3
2017-03-02T05:30:13.422Z,5.28
2017-03-02T05:31:22.745Z,5.33
2017-03-02T05:32:32.085Z,5.24
2017-03-02T05:33:41.248Z,5.27
2017-03-02T05:34:50.973Z,5.21
2017-03-02T05:36:00.288Z,5.2
2017-03-02T05:37:10.421Z,5.21
2017-03-02T05:38:19.739Z,5.24
2017-03-02T05:39:28.755Z,5.21
2017-03-02T05:40:37.677Z,5.27
2017-03-02T05:41:47.000Z,5.27
2017-03-02T05:42:56.730Z,5.24
2017-03-02T05:44:06.467Z,5.22
2017-03-02T05:45:16.394Z,5.27
2017-03-02T05:46:25.716Z,5.33
2017-03-02T05:47:35.450Z,5.35
2017-03-02T05:48:44.394Z,5.33
2017-03-02T05:49:54.131Z,5.35
2017-03-02T05:51:03.884Z,5.27
2017-03-02T05:52:13.236Z,5.33
2017-03-02T05:53:22.580Z,5.38
2017-03-02T05:54:31.900Z,5.25
2017-03-02T05:55:42.051Z,5.27
2017-03-02T05:56:51.119Z,5.2
2017-03-02T05:58:01.667Z,5.24
2017-03-02T05:59:11.394Z,5.22
2017-03-02T06:00:21.554Z,5.18
2017-03-02T06:01:31.299Z,5.18
2017-03-02T06:02:41.286Z,5.17
2017-03-02T06:03:51.423Z,5.24
2017-03-02T06:05:00.749Z,5.17
2017-03-02T06:06:10.592Z,5.13
2017-03-02T06:07:19.933Z,5.1
2017-03-02T06:08:29.417Z,5.15
2017-03-02T06:09:38.739Z,5.18
2017-03-02T06:10:49.277Z,5.15
2017-03-02T06:11:58.215Z,5.2
2017-03-02T06:13:07.977Z,5.13
2017-03-02T06:14:18.291Z,5.09
2017-03-02T06:15:28.058Z,5.06
2017-03-02T06:16:38.218Z,5.02
2017-03-02T06:17:47.139Z,5.1
2017-03-02T06:18:57.679Z,5.03
2017-03-02T06:20:07.183Z,5
2017-03-02T06:21:17.330Z,4.86
2017-03-02T06:22:27.072Z,4.77
2017-03-02T06:23:36.406Z,4.69
2017-03-02T06:24:46.158Z,4.7
2017-03-02T06:25:55.233Z,4.6
2017-03-02T06:27:04.974Z,4.55
2017-03-02T06:28:13.901Z,4.48
2017-03-02T06:29:23.631Z,4.55
2017-03-02T06:30:33.371Z,4.47
2017-03-02T06:31:43.264Z,4.58
2017-03-02T06:32:53.397Z,4.44
2017-03-02T06:34:02.726Z,4.42
2017-03-02T06:35:11.683Z,4.44
2017-03-02T06:36:21.001Z,4.37
2017-03-02T06:37:30.742Z,4.32
2017-03-02T06:38:39.667Z,4.32
2017-03-02T06:39:49.416Z,4.27
2017-03-02T06:40:58.345Z,4.24
2017-03-02T06:42:08.476Z,4.26
2017-03-02T06:43:18.337Z,4.22
2017-03-02T06:44:27.661Z,4.11
2017-03-02T06:45:36.577Z,4.12
2017-03-02T06:46:46.299Z,4.12
2017-03-02T06:47:56.455Z,4.24
2017-03-02T06:49:06.781Z,4.14
2017-03-02T06:50:16.914Z,4.24
2017-03-02T06:51:25.827Z,4.24
2017-03-02T06:52:35.188Z,4.22
2017-03-02T06:53:44.149Z,4.04
2017-03-02T06:54:53.112Z,4.02
2017-03-02T06:56:02.841Z,3.88
2017-03-02T06:57:12.589Z,3.87
2017-03-02T06:58:22.314Z,3.76
2017-03-02T06:59:31.640Z,3.8
2017-03-02T07:00:42.353Z,3.73
2017-03-02T07:01:51.693Z,3.7
2017-03-02T07:03:01.032Z,3.66
2017-03-02T07:04:11.198Z,3.75
2017-03-02T07:05:20.959Z,3.6
2017-03-02T07:06:31.237Z,3.69
2017-03-02T07:07:40.600Z,3.54
2017-03-02T07:08:50.330Z,3.51
2017-03-02T07:10:00.060Z,3.55
2017-03-02T07:11:09.417Z,3.45
2017-03-02T07:12:19.397Z,3.33
2017-03-02T07:13:28.740Z,3.36
2017-03-02T07:14:38.466Z,3.28
2017-03-02T07:15:48.217Z,3.33
2017-03-02T07:16:57.941Z,3.31
2017-03-02T07:18:07.326Z,3.33
2017-03-02T07:19:16.653Z,3.35
2017-03-02T07:20:26.416Z,3.18
2017-03-02T07:21:36.184Z,3.29
2017-03-02T07:22:45.554Z,3.33
2017-03-02T07:23:54.892Z,3.26
2017-03-02T07:25:04.617Z,3.2
2017-03-02T07:26:14.775Z,3.39
2017-03-02T07:27:24.495Z,3.24
2017-03-02T07:28:33.835Z,3.21
2017-03-02T07:29:43.404Z,3.29
2017-03-02T07:30:52.756Z,3.31
2017-03-02T07:32:01.697Z,3.31
2017-03-02T07:33:11.423Z,3.32
2017-03-02T07:34:21.169Z,3.33
2017-03-02T07:35:30.635Z,3.35
2017-03-02T07:36:41.191Z,3.29
2017-03-02T07:37:50.514Z,3.42
2017-03-02T07:38:59.841Z,3.45
2017-03-02T07:40:10.018Z,3.47
2017-03-02T07:41:19.911Z,3.43
2017-03-02T07:42:30.053Z,3.39
2017-03-02T07:43:40.595Z,3.39
2017-03-02T07:44:50.328Z,3.48
2017-03-02T07:45:59.657Z,3.51
2017-03-02T07:47:09.566Z,3.52
2017-03-02T07:48:19.306Z,3.54
2017-03-02T07:49:28.626Z,3.54
2017-03-02T07:50:39.162Z,3.62
2017-03-02T07:51:49.298Z,3.54
2017-03-02T07:52:59.184Z,3.62
2017-03-02T07:54:08.118Z,3.7
2017-03-02T07:55:17.043Z,3.69
2017-03-02T07:56:26.358Z,3.76
2017-03-02T07:57:35.678Z,3.66
2017-03-02T07:58:45.305Z,3.78
2017-03-02T07:59:54.620Z,3.72
2017-03-02T08:01:03.940Z,3.9
2017-03-02T08:02:13.268Z,3.8
2017-03-02T08:03:22.584Z,3.94
2017-03-02T08:04:32.160Z,3.88
2017-03-02T08:05:41.879Z,3.9
2017-03-02T08:06:51.611Z,4
2017-03-02T08:08:01.357Z,4.04
2017-03-02T08:09:10.708Z,4.06
2017-03-02T08:10:20.543Z,4.15
2017-03-02T08:11:29.870Z,4.14
2017-03-02T08:12:39.215Z,4.23
2017-03-02T08:13:48.973Z,4.12
2017-03-02T08:14:58.506Z,4.08
2017-03-02T08:16:08.235Z,3.98
2017-03-02T08:17:17.157Z,3.9
2017-03-02T08:18:26.084Z,3.84
2017-03-02T08:19:35.811Z,3.84
2017-03-02T08:20:45.144Z,3.87
2017-03-02T08:21:54.208Z,3.87
2017-03-02T08:23:04.356Z,3.78
2017-03-02T08:24:14.898Z,3.8
2017-03-02T08:25:24.633Z,3.75
2017-03-02T08:26:33.580Z,3.8
2017-03-02T08:27:42.654Z,3.73
2017-03-02T08:28:52.372Z,3.7
2017-03-02T08:30:01.736Z,3.62
2017-03-02T08:31:11.483Z,3.68
2017-03-02T08:32:21.225Z,3.58
2017-03-02T08:33:31.418Z,3.52
2017-03-02T08:34:41.149Z,3.55
2017-03-02T08:35:50.464Z,3.42
2017-03-02T08:37:00.614Z,3.45
2017-03-02T08:38:09.958Z,3.32
2017-03-02T08:39:19.333Z,3.29
2017-03-02T08:40:29.469Z,3.26
2017-03-02T08:41:38.790Z,3.17
2017-03-02T08:42:48.111Z,3.11
2017-03-02T08:43:57.431Z,3.05
2017-03-02T08:45:07.505Z,3.14
2017-03-02T08:46:16.831Z,3.03
2017-03-02T08:47:26.561Z,3.14
2017-03-02T08:48:35.898Z,3.03
2017-03-02T08:49:44.830Z,3.02
2017-03-02T08:50:54.438Z,2.97
2017-03-02T08:52:03.785Z,3.03
2017-03-02T08:53:13.526Z,2.99
2017-03-02T08:54:23.266Z,3
2017-03-02T08:55:32.996Z,3
2017-03-02T08:56:42.945Z,3.06
2017-03-02T08:57:52.281Z,3.03
2017-03-02T08:59:02.002Z,2.99
2017-03-02T09:00:10.916Z,3
2017-03-02T09:01:20.640Z,2.99
2017-03-02T09:02:30.514Z,2.93
2017-03-02T09:03:39.439Z,2.99
2017-03-02T09:04:49.182Z,2.97
2017-03-02T09:05:59.325Z,2.93
2017-03-02T09:07:09.044Z,3.03
2017-03-02T09:08:18.716Z,3.03
2017-03-02T09:09:28.437Z,3
2017-03-02T09:10:38.182Z,2.97
2017-03-02T09:11:47.508Z,2.96
2017-03-02T09:12:56.434Z,2.93
2017-03-02T09:14:06.003Z,2.9
2017-03-02T09:15:15.745Z,2.93
2017-03-02T09:16:25.057Z,2.81
2017-03-02T09:17:33.986Z,2.79
2017-03-02T09:18:43.725Z,2.74
2017-03-02T09:19:53.531Z,2.74
2017-03-02T09:21:03.669Z,2.79
2017-03-02T09:22:13.408Z,2.85
2017-03-02T09:23:22.726Z,2.79
2017-03-02T09:24:32.057Z,2.9
2017-03-02T09:25:41.954Z,2.81
2017-03-02T09:26:51.704Z,2.9
2017-03-02T09:28:01.041Z,2.78
2017-03-02T09:29:10.358Z,2.89
2017-03-02T09:30:19.685Z,2.74
2017-03-02T09:31:29.062Z,2.9
2017-03-02T09:32:38.377Z,2.84
2017-03-02T09:33:47.729Z,2.9
2017-03-02T09:34:57.064Z,2.89
2017-03-02T09:36:06.794Z,2.89
2017-03-02T09:37:16.408Z,2.85
2017-03-02T09:38:25.316Z,3
2017-03-02T09:39:34.233Z,2.97
2017-03-02T09:40:43.576Z,2.99
2017-03-02T09:41:52.901Z,2.99
2017-03-02T09:43:02.726Z,2.99
2017-03-02T09:44:12.880Z,3
2017-03-02T09:45:21.801Z,2.97
2017-03-02T09:46:31.530Z,3.05
2017-03-02T09:47:41.282Z,2.97
2017-03-02T09:48:50.313Z,3.05
2017-03-02T09:49:59.641Z,3.05
2017-03-02T09:51:08.574Z,2.97
2017-03-02T09:52:17.484Z,2.95
2017-03-02T09:53:27.245Z,2.99
2017-03-02T09:54:37.128Z,3
2017-03-02T09:55:46.064Z,2.93
2017-03-02T09:56:55.384Z,2.97
2017-03-02T09:58:05.113Z,3.03
2017-03-02T09:59:14.028Z,2.96
2017-03-02T10:00:23.773Z,2.96
2017-03-02T10:01:33.497Z,3.13
2017-03-02T10:02:42.836Z,3.06
2017-03-02T10:03:51.740Z,3.15
2017-03-02T10:05:01.473Z,3.18
2017-03-02T10:06:11.724Z,3.17
2017-03-02T10:07:21.064Z,3.17
2017-03-02T10:08:30.797Z,3.2
2017-03-02T10:09:40.117Z,3.32
2017-03-02T10:10:49.039Z,3.28
2017-03-02T10:11:58.219Z,3.36
2017-03-02T10:13:07.948Z,3.28
2017-03-02T10:14:16.871Z,3.33
2017-03-02T10:15:26.201Z,3.31
2017-03-02T10:16:36.356Z,3.31
2017-03-02T10:17:46.158Z,3.47
2017-03-02T10:18:55.075Z,3.48
2017-03-02T10:20:04.829Z,3.54
2017-03-02T10:21:13.743Z,3.54
2017-03-02T10:22:23.057Z,3.7
2017-03-02T10:23:32.392Z,3.72
2017-03-02T10:24:41.316Z,3.86
2017-03-02T10:25:51.062Z,3.79
2017-03-02T10:27:00.399Z,3.88
2017-03-02T10:28:09.331Z,4
2017-03-02T10:29:18.399Z,3.97
2017-03-02T10:30:27.736Z,4.06
2017-03-02T10:31:37.465Z,4.12
2017-03-02T10:32:47.201Z,4.14
2017-03-02T10:33:56.113Z,4.15
2017-03-02T10:35:05.430Z,4.24
2017-03-02T10:36:14.745Z,4.26
2017-03-02T10:37:24.074Z,4.24
2017-03-02T10:38:33.814Z,4.42
2017-03-02T10:39:43.157Z,4.47
2017-03-02T10:40:52.886Z,4.52
2017-03-02T10:42:02.628Z,4.52
2017-03-02T10:43:11.961Z,4.65
2017-03-02T10:44:21.293Z,4.65
2017-03-02T10:45:31.016Z,4.67
2017-03-02T10:46:40.559Z,4.77
2017-03-02T10:47:49.477Z,4.73
2017-03-02T10:49:00.024Z,4.77
2017-03-02T10:50:09.776Z,4.84
2017-03-02T10:51:19.505Z,4.75
2017-03-02T10:52:28.973Z,4.91
2017-03-02T10:53:38.708Z,4.78
2017-03-02T10:54:48.440Z,4.75
2017-03-02T10:55:57.784Z,4.86
2017-03-02T10:57:07.108Z,4.84
2017-03-02T10:58:17.419Z,4.92
2017-03-02T10:59:26.753Z,4.91
2017-03-02T11:00:36.496Z,4.89
2017-03-02T11:01:45.822Z,4.96
2017-03-02T11:02:55.145Z,4.96
2017-03-02T11:04:05.116Z,5.06
2017-03-02T11:05:15.666Z,5.04
2017-03-02T11:06:25.422Z,5.02
2017-03-02T11:07:35.154Z,5.02
2017-03-02T11:08:44.880Z,5.1
2017-03-02T11:09:54.248Z,5.03
2017-03-02T11:11:04.002Z,5.06
2017-03-02T11:12:13.341Z,5.07
2017-03-02T11:13:23.078Z,4.97
2017-03-02T11:14:33.211Z,5.04
2017-03-02T11:15:42.608Z,5.18
2017-03-02T11:16:52.344Z,5.15
2017-03-02T11:18:01.253Z,5.12
2017-03-02T11:19:11.007Z,5.06
2017-03-02T11:20:20.342Z,5.12
2017-03-02T11:21:30.211Z,5.13
2017-03-02T11:22:39.134Z,5.12
2017-03-02T11:23:48.862Z,5.12
2017-03-02T11:24:58.591Z,5.13
2017-03-02T11:26:08.328Z,5.09
2017-03-02T11:27:18.307Z,5.15
2017-03-02T11:28:28.054Z,5.12
2017-03-02T11:29:37.820Z,5.12
2017-03-02T11:30:47.141Z,5.2
2017-03-02T11:31:56.861Z,5.21
2017-03-02T11:33:06.862Z,5.2
2017-03-02T11:34:16.596Z,5.2
2017-03-02T11:35:25.507Z,5.2
2017-03-02T11:36:34.862Z,5.33
2017-03-02T11:37:44.605Z,5.38
2017-03-02T11:38:54.091Z,5.35
2017-03-02T11:40:03.820Z,5.33
2017-03-02T11:41:13.141Z,5.33
2017-03-02T11:42:22.463Z,5.39
2017-03-02T11:43:31.783Z,5.33
2017-03-02T11:44:41.306Z,5.43
2017-03-02T11:45:50.222Z,5.43
2017-03-02T11:46:59.952Z,5.42
2017-03-02T11:48:09.686Z,5.43
2017-03-02T11:49:19.001Z,5.43
2017-03-02T11:50:28.480Z,5.42
2017-03-02T11:51:38.241Z,5.42
2017-03-02T11:52:47.558Z,5.45
2017-03-02T11:53:57.307Z,5.43
2017-03-02T11:55:07.052Z,5.43
2017-03-02T11:56:16.558Z,5.48
2017-03-02T11:57:25.487Z,5.39
2017-03-02T11:58:35.663Z,5.39
2017-03-02T11:59:44.992Z,5.42
2017-03-02T12:00:54.316Z,5.4
2017-03-02T12:02:04.622Z,5.4
2017-03-02T12:03:14.092Z,5.45
2017-03-02T12:04:23.426Z,5.42
2017-03-02T12:05:33.154Z,5.46
2017-03-02T12:06:42.476Z,5.46
2017-03-02T12:07:51.895Z,5.49
2017-03-02T12:09:01.688Z,5.43
2017-03-02T12:10:11.449Z,5.46
2017-03-02T12:11:21.187Z,5.45
2017-03-02T12:12:30.507Z,5.48
2017-03-02T12:13:39.591Z,5.53
2017-03-02T12:14:49.333Z,5.51
2017-03-02T12:15:59.084Z,5.65
2017-03-02T12:17:09.240Z,5.63
2017-03-02T12:18:18.173Z,5.57
2017-03-02T12:19:27.141Z,5.63
2017-03-02T12:20:36.458Z,5.64
2017-03-02T12:21:46.195Z,5.63
2017-03-02T12:22:55.537Z,5.64
2017-03-02T12:24:04.893Z,5.64
2017-03-02T12:25:13.964Z,5.67
2017-03-02T12:26:23.305Z,5.64
2017-03-02T12:27:32.648Z,5.61
2017-03-02T12:28:43.215Z,5.71
2017-03-02T12:29:52.157Z,5.67
2017-03-02T12:31:02.034Z,5.67
2017-03-02T12:32:10.953Z,5.67
2017-03-02T12:33:20.707Z,5.74
2017-03-02T12:34:30.487Z,5.74
2017-03-02T12:35:39.888Z,5.68
2017-03-02T12:36:49.451Z,5.79
2017-03-02T12:37:58.842Z,5.79
2017-03-02T12:39:08.199Z,5.82
2017-03-02T12:40:17.525Z,5.82
2017-03-02T12:41:27.251Z,5.96
2017-03-02T12:42:36.571Z,6.06
2017-03-02T12:43:46.328Z,6.11
2017-03-02T12:44:55.268Z,6.11
2017-03-02T12:46:04.604Z,6.19
2017-03-02T12:47:13.535Z,6.19
2017-03-02T12:48:22.598Z,6.21
2017-03-02T12:49:32.332Z,6.25
2017-03-02T12:50:41.652Z,6.25
2017-03-02T12:51:51.000Z,6.22
2017-03-02T12:53:00.316Z,6.27
2017-03-02T12:54:10.203Z,6.34
2017-03-02T12:55:19.608Z,6.36
2017-03-02T12:56:29.755Z,6.27
2017-03-02T12:57:40.004Z,6.28
2017-03-02T12:58:49.370Z,6.3
2017-03-02T12:59:58.840Z,6.22
2017-03-02T13:01:07.768Z,6.18
2017-03-02T13:02:17.093Z,6.22
2017-03-02T13:03:26.837Z,6.28
2017-03-02T13:04:36.188Z,6.4
2017-03-02T13:05:45.321Z,6.43
2017-03-02T13:06:55.055Z,6.36
2017-03-02T13:08:04.380Z,6.46
2017-03-02T13:09:14.144Z,6.34
2017-03-02T13:10:23.479Z,6.43
2017-03-02T13:11:32.393Z,6.34
2017-03-02T13:12:41.303Z,6.44
2017-03-02T13:13:51.032Z,6.4
2017-03-02T13:15:00.350Z,6.44
2017-03-02T13:16:09.740Z,6.34
2017-03-02T13:17:19.655Z,6.44
2017-03-02T13:18:29.433Z,6.41
2017-03-02T13:19:39.034Z,6.46
2017-03-02T13:20:48.413Z,6.38
2017-03-02T13:21:57.744Z,6.41
2017-03-02T13:23:08.201Z,6.37
2017-03-02T13:24:17.126Z,6.44
2017-03-02T13:25:26.041Z,6.43
2017-03-02T13:26:35.389Z,6.38
2017-03-02T13:27:44.313Z,6.4
2017-03-02T13:28:53.456Z,6.4
2017-03-02T13:30:02.776Z,6.28
2017-03-02T13:31:12.131Z,6.31
2017-03-02T13:32:21.476Z,6.34
2017-03-02T13:33:30.862Z,6.37
2017-03-02T13:34:39.891Z,6.3
2017-03-02T13:35:49.629Z,6.25
2017-03-02T13:36:58.974Z,6.21
2017-03-02T13:38:08.301Z,6.28
2017-03-02T13:39:18.043Z,6.25
2017-03-02T13:40:27.123Z,6.27
2017-03-02T13:41:36.051Z,6.21
2017-03-02T13:42:44.988Z,6.27
2017-03-02T13:43:53.948Z,6.22
2017-03-02T13:45:02.871Z,6.27
2017-03-02T13:46:12.462Z,6.41
2017-03-02T13:47:21.810Z,6.22
2017-03-02T13:48:30.726Z,6.36
2017-03-02T13:49:40.457Z,6.31
2017-03-02T13:50:50.201Z,6.25
2017-03-02T13:51:59.520Z,6.27
2017-03-02T13:53:08.442Z,6.3
2017-03-02T13:54:17.373Z,6.28
2017-03-02T13:55:26.286Z,6.33
2017-03-02T13:56:36.048Z,6.33
2017-03-02T13:57:45.940Z,6.22
2017-03-02T13:58:55.694Z,6.12
2017-03-02T14:00:05.435Z,6.28
2017-03-02T14:01:14.783Z,6.31
2017-03-02T14:02:24.119Z,6.18
2017-03-02T14:03:33.698Z,6.21
2017-03-02T14:04:43.452Z,6.21
2017-03-02T14:05:52.374Z,6.3
2017-03-02T14:07:02.115Z,6.3
2017-03-02T14:08:11.035Z,6.17
2017-03-02T14:09:21.317Z,6.28
2017-03-02T14:10:30.665Z,6.19
2017-03-02T14:11:40.396Z,6.27
2017-03-02T14:12:50.127Z,6.27
2017-03-02T14:13:59.450Z,6.21
2017-03-02T14:15:08.975Z,6.25
2017-03-02T14:16:18.312Z,6.38
2017-03-02T14:17:27.641Z,6.37
2017-03-02T14:18:36.594Z,6.28
2017-03-02T14:19:45.958Z,6.34
2017-03-02T14:20:55.024Z,6.31
2017-03-02T14:22:04.349Z,6.33
2017-03-02T14:23:13.715Z,6.28
2017-03-02T14:24:22.648Z,6.33
2017-03-02T14:25:32.385Z,6.22
2017-03-02T14:26:41.462Z,6.19
2017-03-02T14:27:50.376Z,6.21
2017-03-02T14:28:59.692Z,6.14
2017-03-02T14:30:09.021Z,6.14
2017-03-02T14:31:18.773Z,6.15
2017-03-02T14:32:28.168Z,6.14
2017-03-02T14:33:37.128Z,6.06
2017-03-02T14:34:47.262Z,6.14
2017-03-02T14:35:56.183Z,6.09
2017-03-02T14:37:05.913Z,6.11
2017-03-02T14:38:15.284Z,6.04
2017-03-02T14:39:25.009Z,6.03
2017-03-02T14:40:34.326Z,6.01
2017-03-02T14:41:44.080Z,6.04
2017-03-02T14:42:53.400Z,5.97
2017-03-02T14:44:02.929Z,5.97
2017-03-02T14:45:12.268Z,5.9
2017-03-02T14:46:21.177Z,5.83
2017-03-02T14:47:30.494Z,5.83
2017-03-02T14:48:39.404Z,5.9
2017-03-02T14:49:48.771Z,5.85
2017-03-02T14:50:58.121Z,5.89
2017-03-02T14:52:07.447Z,5.86
2017-03-02T14:53:16.778Z,5.75
2017-03-02T14:54:26.096Z,5.82
2017-03-02T14:55:35.894Z,5.74
2017-03-02T14:56:45.222Z,5.81
2017-03-02T14:57:54.558Z,5.76
2017-03-02T14:59:03.880Z,5.86
2017-03-02T15:00:13.212Z,5.72
2017-03-02T15:01:23.497Z,5.82
2017-03-02T15:02:32.831Z,5.79
2017-03-02T15:03:42.147Z,5.75
2017-03-02T15:04:51.066Z,5.76
2017-03-02T15:06:00.395Z,5.81
2017-03-02T15:07:10.289Z,5.81
2017-03-02T15:08:19.614Z,5.78
2017-03-02T15:09:28.944Z,5.74
2017-03-02T15:10:38.692Z,5.81
2017-03-02T15:11:48.427Z,5.79
2017-03-02T15:12:59.149Z,5.76
2017-03-02T15:14:09.291Z,5.78
2017-03-02T15:15:18.256Z,5.78
2017-03-02T15:16:28.042Z,5.75
2017-03-02T15:17:37.782Z,5.81
2017-03-02T15:18:46.768Z,5.71
2017-03-02T15:19:56.510Z,5.75
2017-03-02T15:21:05.429Z,5.76
2017-03-02T15:22:15.167Z,5.79
2017-03-02T15:23:24.919Z,5.83
2017-03-02T15:24:34.835Z,5.83
2017-03-02T15:25:43.761Z,5.83
2017-03-02T15:26:53.559Z,5.86
2017-03-02T15:28:02.885Z,5.83
2017-03-02T15:29:12.242Z,5.76